Time;durP1;ratioP1;P1;durP2;ratioP2;P2;SDS_P1;SDS_P2;PMS_P1;PMS_P2;Temp;Humidity;BMP_temperature;BMP_pressure;BME280_temperature;BME280_humidity;BME280_pressure;Samples;Min_cycle;Max_cycle;Signal;HPM_P1;HPM_P2
2022/12/07 00:01:36;;;;;;;11.13;6.90;;;;;;;1.78;100.00;97350.59;5060089;28;20523;-60
2022/12/07 00:04:04;;;;;;;11.80;7.00;;;;;;;1.84;100.00;97357.81;5044029;28;20049;-59
2022/12/07 00:06:40;;;;;;;12.15;6.78;;;;;;;1.73;100.00;97345.84;5047877;28;20045;-61
2022/12/07 00:09:09;;;;;;;14.13;7.28;;;;;;;1.86;100.00;97352.28;5048352;28;20267;-59
2022/12/07 00:11:36;;;;;;;11.52;6.78;;;;;;;1.85;100.00;97342.63;5067633;28;20511;-61
2022/12/07 00:14:06;;;;;;;12.25;7.40;;;;;;;1.73;100.00;97340.50;5066952;28;20569;-59
2022/12/07 00:16:34;;;;;;;11.73;7.55;;;;;;;1.80;100.00;97343.19;5031951;28;20368;-60
2022/12/07 00:19:03;;;;;;;15.00;7.57;;;;;;;1.80;100.00;97344.03;5037051;28;20511;-58
2022/12/07 00:21:32;;;;;;;13.95;8.88;;;;;;;1.93;100.00;97342.47;5041307;28;20068;-61
2022/12/07 00:23:58;;;;;;;14.32;7.97;;;;;;;1.93;100.00;97342.47;5061871;28;20060;-61
2022/12/07 00:26:28;;;;;;;14.75;8.30;;;;;;;2.02;100.00;97338.59;5067461;28;20060;-58
2022/12/07 00:28:59;;;;;;;11.43;7.25;;;;;;;2.05;100.00;97340.06;5047711;28;20044;-61
2022/12/07 00:31:29;;;;;;;12.73;7.70;;;;;;;1.89;100.00;97334.03;5043812;28;20053;-60
2022/12/07 00:33:57;;;;;;;12.65;7.63;;;;;;;1.79;100.00;97331.72;5040507;28;20124;-60
2022/12/07 00:36:24;;;;;;;10.68;6.75;;;;;;;1.70;100.00;97338.22;5018269;28;20653;-58
2022/12/07 00:38:54;;;;;;;13.38;7.72;;;;;;;1.61;100.00;97336.72;5027989;28;20068;-60
2022/12/07 00:41:23;;;;;;;11.65;7.35;;;;;;;1.77;100.00;97336.41;5046949;28;20116;-60
2022/12/07 00:43:50;;;;;;;11.80;6.95;;;;;;;1.75;100.00;97338.47;5057697;28;20053;-59
2022/12/07 00:46:18;;;;;;;13.18;6.70;;;;;;;1.77;100.00;97343.63;5066508;28;20575;-60
2022/12/07 00:48:46;;;;;;;14.88;7.53;;;;;;;1.93;100.00;97329.13;5063969;28;20419;-60
2022/12/07 00:51:16;;;;;;;13.13;7.57;;;;;;;1.92;100.00;97330.16;5046815;28;20505;-60
2022/12/07 00:53:42;;;;;;;12.60;7.68;;;;;;;1.87;100.00;97340.56;5047074;28;20069;-60
2022/12/07 00:56:12;;;;;;;12.35;7.30;;;;;;;1.86;100.00;97344.25;5036708;28;20071;-60
2022/12/07 00:58:39;;;;;;;12.65;7.72;;;;;;;1.91;100.00;97345.31;5036503;28;20496;-61
2022/12/07 01:01:07;;;;;;;12.82;7.57;;;;;;;1.95;100.00;97343.91;5046172;28;20382;-59
2022/12/07 01:03:34;;;;;;;13.23;8.15;;;;;;;1.89;100.00;97342.03;5035701;28;20128;-60
2022/12/07 01:06:01;;;;;;;14.85;8.25;;;;;;;1.77;100.00;97339.06;5046872;28;20045;-60
2022/12/07 01:08:28;;;;;;;12.15;7.22;;;;;;;1.66;100.00;97339.66;5046266;28;20120;-60
2022/12/07 01:11:06;;;;;;;11.10;6.85;;;;;;;1.52;100.00;97350.19;5061535;28;20543;-60
2022/12/07 01:13:34;;;;;;;14.18;7.40;;;;;;;1.78;100.00;97339.91;5065700;28;20094;-59
2022/12/07 01:16:04;;;;;;;12.00;6.75;;;;;;;1.62;100.00;97341.84;5066800;28;20041;-60
2022/12/07 01:18:32;;;;;;;14.32;7.90;;;;;;;1.64;100.00;97339.84;5065307;28;20055;-59
2022/12/07 01:21:09;;;;;;;13.70;7.40;;;;;;;1.60;100.00;97346.59;5045980;28;20053;-60
2022/12/07 01:23:36;;;;;;;14.98;8.25;;;;;;;1.68;100.00;97343.75;5046025;28;20416;-60
2022/12/07 01:26:06;;;;;;;14.88;8.10;;;;;;;1.56;100.00;97345.31;5046216;28;20120;-59
2022/12/07 01:28:33;;;;;;;13.93;8.57;;;;;;;1.52;100.00;97346.72;5053222;28;20414;-60
2022/12/07 01:31:12;;;;;;;12.70;7.53;;;;;;;1.44;100.00;97353.03;5061364;28;20128;-59
2022/12/07 01:33:39;;;;;;;13.93;7.60;;;;;;;1.45;100.00;97359.19;5034333;28;20040;-59
2022/12/07 01:36:15;;;;;;;11.15;6.95;;;;;;;1.45;100.00;97359.19;5046270;28;20404;-60
2022/12/07 01:38:42;;;;;;;13.30;7.47;;;;;;;1.52;100.00;97357.41;5046136;28;20045;-59
2022/12/07 01:41:09;;;;;;;15.65;8.45;;;;;;;1.62;100.00;97362.41;5045755;28;20570;-60
2022/12/07 01:43:36;;;;;;;13.63;7.60;;;;;;;1.54;100.00;97355.34;5044172;28;20055;-60
2022/12/07 01:46:04;;;;;;;13.20;8.02;;;;;;;1.56;100.00;97361.34;5045925;28;20128;-60
2022/12/07 01:48:38;;;;;;;14.35;8.43;;;;;;;1.44;100.00;97363.72;5044471;28;20047;-60
2022/12/07 01:51:10;;;;;;;12.13;7.38;;;;;;;1.38;100.00;97364.47;5026127;28;20041;-58
2022/12/07 01:53:43;;;;;;;15.20;7.72;;;;;;;1.46;100.00;97358.16;5032264;28;20048;-59
2022/12/07 01:56:16;;;;;;;12.77;7.85;;;;;;;1.52;100.00;97363.53;5045413;28;20052;-60
2022/12/07 01:58:43;;;;;;;13.73;7.63;;;;;;;1.63;100.00;97367.56;5045716;28;20051;-60
2022/12/07 02:01:10;;;;;;;13.88;7.85;;;;;;;1.60;100.00;97362.59;5044738;28;20206;-59
2022/12/07 02:03:43;;;;;;;12.63;7.38;;;;;;;1.55;100.00;97354.34;5033027;28;20071;-59
2022/12/07 02:06:15;;;;;;;10.38;6.72;;;;;;;1.63;100.00;97364.06;5046310;28;20043;-60
2022/12/07 02:08:42;;;;;;;11.93;7.18;;;;;;;1.56;100.00;97354.13;5045417;28;20037;-59
2022/12/07 02:11:10;;;;;;;11.70;6.78;;;;;;;1.54;100.00;97355.34;5062922;28;20122;-59
2022/12/07 02:13:39;;;;;;;13.63;7.95;;;;;;;1.31;100.00;97361.75;5034157;28;20041;-60
2022/12/07 02:16:22;;;;;;;12.70;7.22;;;;;;;1.29;100.00;97355.81;5045716;28;20067;-60
2022/12/07 02:18:59;;;;;;;15.10;7.63;;;;;;;1.19;100.00;97357.94;5040899;28;20065;-58
2022/12/07 02:21:36;;;;;;;15.30;8.82;;;;;;;1.17;100.00;97358.97;5025303;28;20131;-60
2022/12/07 02:24:34;;;;;;;13.60;8.75;;;;;;;1.20;100.00;97360.44;5025370;28;20069;-58
2022/12/07 02:27:22;;;;;;;15.32;9.07;;;;;;;1.13;100.00;97355.03;5028742;28;20122;-60
2022/12/07 02:30:00;;;;;;;14.60;8.48;;;;;;;1.17;100.00;97353.66;5059914;28;20045;-59
2022/12/07 02:32:43;;;;;;;15.63;9.30;;;;;;;1.24;100.00;97348.38;5042965;28;20107;-58
2022/12/07 02:35:35;;;;;;;16.48;9.68;;;;;;;1.10;100.00;97342.09;5034188;28;20440;-60
2022/12/07 02:38:33;;;;;;;19.20;9.40;;;;;;;1.10;100.00;97338.59;5025416;28;20129;-58
2022/12/07 02:41:05;;;;;;;16.83;9.00;;;;;;;1.14;100.00;97338.00;5025208;28;20103;-59
2022/12/07 02:43:40;;;;;;;14.30;8.40;;;;;;;1.12;100.00;97340.06;5027851;28;20857;-58
2022/12/07 02:46:13;;;;;;;15.32;8.90;;;;;;;1.06;100.00;97332.00;5045264;28;20526;-59
2022/12/07 02:48:42;;;;;;;16.75;9.63;;;;;;;1.10;100.00;97334.09;5042563;28;20397;-59
2022/12/07 02:51:08;;;;;;;15.30;8.90;;;;;;;1.09;100.00;97335.09;5024440;28;20059;-59
2022/12/07 02:53:42;;;;;;;15.27;8.68;;;;;;;1.11;100.00;97330.38;5027747;28;20063;-59
2022/12/07 02:56:36;;;;;;;13.55;7.55;;;;;;;1.10;100.00;97334.09;5045134;28;20296;-60
2022/12/07 02:59:31;;;;;;;12.40;7.30;;;;;;;1.17;100.00;97334.13;5045544;28;20393;-60
2022/12/07 03:02:38;;;;;;;14.82;7.90;;;;;;;1.11;100.00;97324.25;5037903;28;20045;-60
2022/12/07 03:05:23;;;;;;;15.60;8.45;;;;;;;1.13;100.00;97335.53;5040557;28;20040;-59
2022/12/07 03:08:19;;;;;;;15.60;8.52;;;;;;;0.97;100.00;97325.97;5045060;28;20044;-59
2022/12/07 03:11:02;;;;;;;14.57;7.72;;;;;;;1.03;100.00;97331.38;5063284;28;20534;-58
2022/12/07 03:13:59;;;;;;;14.35;7.82;;;;;;;0.92;100.00;97328.38;5068570;28;20102;-59
2022/12/07 03:17:07;;;;;;;13.30;7.15;;;;;;;0.99;100.00;97324.75;5068925;28;20097;-58
2022/12/07 03:19:36;;;;;;;15.80;7.72;;;;;;;1.09;100.00;97326.28;5035327;28;20052;-58
2022/12/07 03:22:07;;;;;;;14.27;8.02;;;;;;;1.15;100.00;97328.19;5024961;28;20057;-58
2022/12/07 03:24:41;;;;;;;12.60;7.22;;;;;;;1.10;100.00;97318.09;5036190;28;20401;-59
2022/12/07 03:27:24;;;;;;;14.05;7.53;;;;;;;1.07;100.00;97317.66;5048852;28;20119;-60
2022/12/07 03:30:19;;;;;;;14.20;7.57;;;;;;;0.97;100.00;97315.31;5051283;28;20041;-60
2022/12/07 03:32:52;;;;;;;16.13;8.32;;;;;;;0.87;100.00;97316.47;5031702;28;20072;-60
2022/12/07 03:35:32;;;;;;;14.13;8.18;;;;;;;0.80;100.00;97309.44;5042053;28;20484;-59
2022/12/07 03:38:08;;;;;;;13.57;7.65;;;;;;;0.77;100.00;97310.59;5041152;28;20040;-60
2022/12/07 03:40:49;;;;;;;16.05;9.35;;;;;;;0.83;100.00;97317.00;5048100;28;20463;-60
2022/12/07 03:43:17;;;;;;;17.42;9.35;;;;;;;0.76;100.00;97314.28;5048528;28;20495;-60
2022/12/07 03:46:09;;;;;;;15.55;8.60;;;;;;;0.77;100.00;97323.94;5048217;28;20057;-59
2022/12/07 03:48:44;;;;;;;16.38;9.27;;;;;;;0.77;100.00;97313.25;5035115;28;20057;-60
2022/12/07 03:51:20;;;;;;;17.58;9.43;;;;;;;0.70;100.00;97317.72;5027938;28;20037;-59
2022/12/07 03:53:53;;;;;;;19.80;9.82;;;;;;;0.74;100.00;97316.34;5029275;28;20452;-59
2022/12/07 03:56:20;;;;;;;19.00;10.38;;;;;;;0.74;100.00;97308.34;5048511;28;20136;-58
2022/12/07 03:58:48;;;;;;;18.00;9.68;;;;;;;0.72;100.00;97308.53;5047927;28;20110;-60
2022/12/07 04:01:14;;;;;;;17.70;9.38;;;;;;;0.69;100.00;97303.56;5046900;28;20128;-60
2022/12/07 04:03:41;;;;;;;14.93;8.88;;;;;;;0.69;100.00;97305.41;5030301;28;20128;-58
2022/12/07 04:06:07;;;;;;;15.45;9.10;;;;;;;0.70;100.00;97307.06;5047557;28;20102;-59
2022/12/07 04:08:34;;;;;;;15.32;8.35;;;;;;;0.67;100.00;97291.44;5047676;28;20071;-60
2022/12/07 04:11:01;;;;;;;14.70;8.23;;;;;;;0.67;100.00;97275.47;5063793;28;20067;-60
2022/12/07 04:13:27;;;;;;;14.70;8.65;;;;;;;0.61;100.00;97275.22;5068119;28;20068;-62
2022/12/07 04:15:54;;;;;;;14.10;8.27;;;;;;;0.68;100.00;97280.59;5067550;28;20079;-59
2022/12/07 04:18:20;;;;;;;11.90;6.97;;;;;;;0.87;100.00;97281.81;5067129;28;20041;-58
2022/12/07 04:20:47;;;;;;;12.95;7.40;;;;;;;1.12;100.00;97280.56;5045983;28;20562;-59
2022/12/07 04:23:13;;;;;;;10.88;6.60;;;;;;;1.13;100.00;97264.38;5031182;28;20033;-59
2022/12/07 04:25:40;;;;;;;10.45;5.95;;;;;;;1.20;100.00;97258.25;5042733;28;20041;-59
2022/12/07 04:28:06;;;;;;;8.52;5.28;;;;;;;1.17;100.00;97260.28;5047247;28;20144;-58
2022/12/07 04:30:33;;;;;;;10.40;5.93;;;;;;;1.17;100.00;97262.13;5060051;28;20040;-59
2022/12/07 04:32:59;;;;;;;10.50;5.53;;;;;;;1.23;100.00;97263.19;5031844;28;20137;-59
2022/12/07 04:35:26;;;;;;;10.65;5.50;;;;;;;1.24;100.00;97264.84;5039730;28;20041;-59
2022/12/07 04:37:52;;;;;;;8.20;5.00;;;;;;;1.32;100.00;97256.69;5047200;28;20098;-58
2022/12/07 04:40:19;;;;;;;9.32;6.05;;;;;;;1.25;100.00;97255.84;5046988;28;20428;-58
2022/12/07 04:42:45;;;;;;;8.57;5.10;;;;;;;1.14;100.00;97260.69;5046942;28;20047;-59
2022/12/07 04:45:11;;;;;;;8.82;4.95;;;;;;;1.12;100.00;97253.88;5046997;28;20108;-59
2022/12/07 04:47:38;;;;;;;9.40;6.18;;;;;;;0.79;100.00;97273.94;5047059;28;20045;-58
2022/12/07 04:50:05;;;;;;;9.73;5.18;;;;;;;0.54;100.00;97269.00;5042249;28;20115;-60
2022/12/07 04:52:32;;;;;;;9.75;5.97;;;;;;;0.41;100.00;97271.53;5046240;28;20045;-58
2022/12/07 04:54:58;;;;;;;11.52;5.30;;;;;;;0.31;100.00;97271.81;5047354;28;20037;-60
2022/12/07 04:57:25;;;;;;;9.65;5.60;;;;;;;0.41;100.00;97268.84;5046421;28;20041;-58
2022/12/07 04:59:51;;;;;;;8.85;4.97;;;;;;;0.48;100.00;97273.22;5046742;28;20064;-60
2022/12/07 05:02:18;;;;;;;8.68;5.38;;;;;;;0.61;100.00;97269.88;5036554;28;20213;-60
2022/12/07 05:04:44;;;;;;;8.10;4.45;;;;;;;0.66;100.00;97268.50;5031655;28;20056;-58
2022/12/07 05:07:11;;;;;;;8.25;4.15;;;;;;;0.58;100.00;97275.59;5046653;28;20135;-60
2022/12/07 05:09:37;;;;;;;8.45;4.93;;;;;;;0.31;100.00;97278.00;5051154;28;20416;-60
2022/12/07 05:12:03;;;;;;;10.70;5.30;;;;;;;0.20;100.00;97287.28;5066295;28;20119;-60
2022/12/07 05:14:30;;;;;;;8.48;4.50;;;;;;;0.03;100.00;97297.31;5065785;28;20110;-60
2022/12/07 05:16:56;;;;;;;10.13;5.40;;;;;;;0.00;100.00;97303.03;5066168;28;20110;-59
2022/12/07 05:19:23;;;;;;;8.27;4.40;;;;;;;-0.21;100.00;97293.97;5058162;28;20114;-60
2022/12/07 05:21:49;;;;;;;10.15;5.55;;;;;;;-0.29;100.00;97288.75;5045721;28;20136;-60
2022/12/07 05:24:16;;;;;;;7.82;4.43;;;;;;;-0.26;100.00;97288.34;5046414;28;20061;-59
2022/12/07 05:26:44;;;;;;;9.68;5.00;;;;;;;-0.32;100.00;97291.75;5046204;28;20052;-60
2022/12/07 05:29:12;;;;;;;11.15;5.45;;;;;;;-0.25;100.00;97278.53;5045953;28;20524;-60
2022/12/07 05:31:39;;;;;;;11.80;5.53;;;;;;;-0.20;100.00;97276.97;5050939;28;20056;-60
2022/12/07 05:34:05;;;;;;;9.32;5.07;;;;;;;-0.09;100.00;97282.84;5025880;28;20049;-60
2022/12/07 05:36:32;;;;;;;9.60;5.30;;;;;;;-0.14;100.00;97278.09;5044619;28;20044;-60
2022/12/07 05:38:58;;;;;;;10.32;6.07;;;;;;;-0.20;100.00;97278.81;5045705;28;20135;-60
2022/12/07 05:44:10;;;;;;;11.23;6.05;;;;;;;-0.31;100.00;97285.44;5045943;28;20381;-60
2022/12/07 05:46:37;;;;;;;12.55;6.60;;;;;;;-0.36;100.00;97285.16;5046032;28;20600;-60
2022/12/07 05:49:03;;;;;;;13.32;6.85;;;;;;;-0.35;100.00;97286.81;5040741;28;20139;-60
2022/12/07 05:51:30;;;;;;;11.60;6.95;;;;;;;-0.33;100.00;97284.78;5042591;28;20079;-60
2022/12/07 05:53:56;;;;;;;12.73;6.65;;;;;;;-0.35;100.00;97284.97;5046091;28;20048;-60
2022/12/07 05:56:23;;;;;;;10.93;6.00;;;;;;;-0.29;100.00;97280.75;5045535;28;20120;-60
2022/12/07 06:01:35;;;;;;;8.50;5.15;;;;;;;-0.18;100.00;97276.81;5041976;28;20488;-59
2022/12/07 06:04:01;;;;;;;10.30;6.00;;;;;;;-0.12;100.00;97285.88;5025920;28;20040;-60
2022/12/07 06:06:28;;;;;;;10.43;5.47;;;;;;;-0.10;100.00;97284.69;5028900;28;20508;-60
2022/12/07 06:08:54;;;;;;;11.95;5.80;;;;;;;-0.02;100.00;97294.41;5025452;28;20432;-60
2022/12/07 06:14:06;;;;;;;11.73;5.47;;;;;;;0.15;100.00;97288.88;5065196;28;20068;-59
2022/12/07 06:16:32;;;;;;;8.85;4.82;;;;;;;0.22;100.00;97284.44;5066040;28;20503;-60
2022/12/07 06:18:59;;;;;;;15.73;5.18;;;;;;;0.23;100.00;97288.75;5060848;28;20052;-60
2022/12/07 06:21:26;;;;;;;9.10;4.90;;;;;;;0.30;100.00;97295.00;5041239;28;20864;-58
2022/12/07 06:23:53;;;;;;;8.65;4.22;;;;;;;0.30;100.00;97288.81;5045370;28;20531;-61
2022/12/07 06:26:19;;;;;;;12.10;5.55;;;;;;;0.27;100.00;97298.03;5045368;28;20106;-60
2022/12/07 06:28:46;;;;;;;8.93;4.95;;;;;;;0.30;100.00;97295.00;5045809;28;20072;-59
2022/12/07 06:31:12;;;;;;;10.50;5.45;;;;;;;0.35;100.00;97292.59;5051098;28;20116;-60
2022/12/07 06:33:40;;;;;;;7.13;4.45;;;;;;;0.33;100.00;97291.13;5025724;28;20063;-59
2022/12/07 06:36:07;;;;;;;8.80;5.30;;;;;;;0.33;100.00;97301.78;5037183;28;20400;-60
2022/12/07 06:38:34;;;;;;;9.30;4.80;;;;;;;0.34;100.00;97290.91;5045818;28;20357;-61
2022/12/07 06:41:00;;;;;;;9.23;4.93;;;;;;;0.32;100.00;97292.94;5045536;28;20063;-60
2022/12/07 06:43:27;;;;;;;8.65;4.97;;;;;;;0.31;100.00;97293.97;5046366;28;20064;-60
2022/12/07 06:45:53;;;;;;;12.23;5.70;;;;;;;0.31;100.00;97298.47;5049856;28;20124;-60
2022/12/07 06:48:20;;;;;;;11.02;5.13;;;;;;;0.31;100.00;97295.78;5049465;28;20366;-58
2022/12/07 06:50:48;;;;;;;10.10;5.82;;;;;;;0.33;100.00;97288.47;5036801;28;20551;-60
2022/12/07 06:53:20;;;;;;;9.13;5.25;;;;;;;0.36;100.00;97282.72;5049708;28;20287;-59
2022/12/07 06:55:47;;;;;;;9.68;5.90;;;;;;;0.27;100.00;97287.38;5047881;28;20063;-60
2022/12/07 06:58:13;;;;;;;9.52;5.57;;;;;;;0.21;100.00;97288.94;5049647;28;20055;-60
2022/12/07 07:00:40;;;;;;;11.13;6.65;;;;;;;0.20;100.00;97281.97;5048700;28;20049;-61
2022/12/07 07:03:07;;;;;;;9.88;5.22;;;;;;;0.16;100.00;97290.50;5032838;28;20042;-59
2022/12/07 07:05:33;;;;;;;13.50;6.40;;;;;;;0.16;100.00;97291.34;5034451;28;20043;-61
2022/12/07 07:08:00;;;;;;;10.10;5.50;;;;;;;0.11;100.00;97299.88;5049229;28;20045;-61
2022/12/07 07:10:46;;;;;;;10.82;5.93;;;;;;;0.14;100.00;97292.53;5062558;28;20207;-55
2022/12/07 07:13:13;;;;;;;10.32;5.70;;;;;;;0.14;100.00;97292.53;5068963;28;20098;-53
2022/12/07 07:15:39;;;;;;;12.80;5.93;;;;;;;0.15;100.00;97299.50;5069090;28;20442;-54
2022/12/07 07:18:06;;;;;;;9.82;5.00;;;;;;;0.16;100.00;97294.00;5068882;28;20041;-55
2022/12/07 07:20:33;;;;;;;9.55;5.18;;;;;;;0.21;100.00;97296.94;5049900;28;20139;-56
2022/12/07 07:23:00;;;;;;;8.82;4.80;;;;;;;0.15;100.00;97300.34;5042667;28;20075;-56
2022/12/07 07:25:27;;;;;;;8.73;5.38;;;;;;;0.14;100.00;97289.88;5042236;28;20617;-54
2022/12/07 07:27:53;;;;;;;10.52;5.30;;;;;;;0.19;100.00;97290.13;5039324;28;20125;-53
2022/12/07 07:30:20;;;;;;;9.13;5.55;;;;;;;0.21;100.00;97288.09;5043217;28;20040;-54
2022/12/07 07:32:46;;;;;;;8.82;5.00;;;;;;;0.40;100.00;97291.19;5046417;28;20055;-53
2022/12/07 07:35:13;;;;;;;9.30;4.88;;;;;;;0.44;100.00;97295.13;5046556;28;20108;-56
2022/12/07 07:37:40;;;;;;;9.75;5.07;;;;;;;0.62;100.00;97305.34;5046289;28;20094;-57
2022/12/07 07:40:09;;;;;;;8.70;4.57;;;;;;;0.74;100.00;97303.81;5042879;28;20087;-55
2022/12/07 07:42:35;;;;;;;9.68;5.38;;;;;;;0.82;100.00;97307.38;5035954;28;20080;-54
2022/12/07 07:45:02;;;;;;;9.93;5.43;;;;;;;0.80;100.00;97312.91;5045271;28;20108;-55
2022/12/07 07:47:29;;;;;;;8.68;5.30;;;;;;;0.83;100.00;97309.84;5047202;28;20099;-57
2022/12/07 07:49:56;;;;;;;10.98;4.97;;;;;;;0.76;100.00;97308.97;5034410;28;20572;-57
2022/12/07 07:52:23;;;;;;;9.07;4.95;;;;;;;0.86;100.00;97314.81;5045785;28;20454;-56
2022/12/07 07:54:50;;;;;;;9.40;4.78;;;;;;;0.80;100.00;97320.88;5047093;28;20703;-58
2022/12/07 07:57:17;;;;;;;8.10;4.55;;;;;;;0.76;100.00;97307.13;5047272;28;20052;-57
2022/12/07 07:59:43;;;;;;;11.45;4.35;;;;;;;0.76;100.00;97312.47;5047891;28;20068;-57
2022/12/07 08:02:14;;;;;;;8.35;4.38;;;;;;;0.90;100.00;97324.09;5043253;28;20049;-59
2022/12/07 08:04:41;;;;;;;12.40;4.47;;;;;;;0.92;98.89;97317.72;5040425;28;20033;-56
2022/12/07 08:07:07;;;;;;;9.15;4.72;;;;;;;1.03;99.52;97319.84;5004489;28;20042;-54
2022/12/07 08:09:34;;;;;;;12.13;4.55;;;;;;;1.07;99.57;97326.47;5039497;28;20049;-56
2022/12/07 08:12:00;;;;;;;7.90;4.20;;;;;;;1.17;99.69;97318.97;5038754;28;20124;-54
2022/12/07 08:14:28;;;;;;;9.82;4.22;;;;;;;1.42;98.62;97323.03;5053218;28;20102;-56
2022/12/07 08:16:55;;;;;;;8.68;4.75;;;;;;;1.40;97.04;97319.75;5042071;28;20076;-56
2022/12/07 08:19:21;;;;;;;7.90;4.63;;;;;;;1.39;97.17;97320.75;5044408;28;20119;-55
2022/12/07 08:21:48;;;;;;;8.35;4.40;;;;;;;1.43;96.70;97325.53;5044016;28;20055;-55
2022/12/07 08:24:15;;;;;;;8.77;4.35;;;;;;;1.42;95.42;97318.53;5046201;28;20041;-56
2022/12/07 08:26:41;;;;;;;10.57;5.13;;;;;;;1.41;95.54;97316.88;5047563;28;20510;-56
2022/12/07 08:29:08;;;;;;;8.65;4.38;;;;;;;1.38;94.04;97319.94;5047465;28;20393;-55
2022/12/07 08:31:35;;;;;;;8.63;4.03;;;;;;;1.52;96.03;97320.03;5039642;28;20132;-58
2022/12/07 08:34:02;;;;;;;8.13;3.95;;;;;;;1.46;94.93;97329.66;5035381;28;20059;-58
2022/12/07 08:36:28;;;;;;;7.20;3.38;;;;;;;1.55;94.08;97325.00;5041847;28;20147;-58
2022/12/07 08:38:55;;;;;;;7.82;3.75;;;;;;;1.53;93.57;97335.88;5044445;28;20044;-58
2022/12/07 08:41:41;;;;;;;8.75;3.85;;;;;;;1.49;93.97;97339.09;5034480;28;20127;-57
2022/12/07 08:44:07;;;;;;;6.43;3.70;;;;;;;1.43;94.36;97338.03;5045256;28;20116;-57
2022/12/07 08:46:45;;;;;;;6.47;2.92;;;;;;;1.53;94.56;97327.84;5045045;28;20156;-55
2022/12/07 08:49:15;;;;;;;6.60;3.15;;;;;;;1.85;92.94;97330.09;5047891;28;20041;-52
2022/12/07 08:51:42;;;;;;;7.72;4.05;;;;;;;1.77;93.20;97325.72;5055656;28;20041;-59
2022/12/07 08:54:15;;;;;;;7.55;3.47;;;;;;;1.81;92.54;97329.66;5044723;28;20209;-58
2022/12/07 08:56:42;;;;;;;7.30;3.45;;;;;;;1.95;91.89;97327.88;5045043;28;20469;-51
2022/12/07 08:59:10;;;;;;;8.65;3.50;;;;;;;1.79;93.57;97333.53;5044760;28;20045;-51
2022/12/07 09:01:36;;;;;;;9.13;3.30;;;;;;;1.79;93.43;97334.38;5040444;28;20536;-56
2022/12/07 09:04:03;;;;;;;6.10;3.50;;;;;;;1.80;94.28;97330.69;5053078;28;20056;-54
2022/12/07 09:06:29;;;;;;;6.50;3.67;;;;;;;1.80;94.62;97333.34;5043795;28;20064;-55
2022/12/07 09:08:59;;;;;;;6.38;3.03;;;;;;;1.79;95.81;97326.38;5044977;28;20044;-55
2022/12/07 09:11:25;;;;;;;6.43;3.20;;;;;;;1.85;95.04;97321.25;5046540;28;20045;-54
2022/12/07 09:13:54;;;;;;;9.82;3.78;;;;;;;1.98;95.26;97328.53;5042749;28;20110;-55
2022/12/07 09:16:21;;;;;;;7.15;3.47;;;;;;;2.10;94.92;97329.59;5042643;28;20792;-56
2022/12/07 09:18:48;;;;;;;5.43;2.97;;;;;;;2.15;95.31;97327.19;5035385;28;20044;-55
2022/12/07 09:21:14;;;;;;;6.18;3.22;;;;;;;2.18;94.69;97326.75;5047940;28;20041;-54
2022/12/07 09:23:42;;;;;;;6.32;3.05;;;;;;;2.17;96.10;97330.47;5057494;28;20056;-56
2022/12/07 09:26:08;;;;;;;7.10;3.40;;;;;;;2.33;95.22;97325.81;5044321;28;20033;-55
2022/12/07 09:28:36;;;;;;;6.93;2.90;;;;;;;2.40;95.67;97321.28;5044686;28;20048;-57
2022/12/07 09:31:04;;;;;;;5.55;2.88;;;;;;;2.46;95.39;97322.34;5043503;28;20148;-58
2022/12/07 09:33:55;;;;;;;6.75;3.58;;;;;;;2.50;96.45;97320.09;5034746;28;20136;-56
2022/12/07 09:36:23;;;;;;;4.80;2.55;;;;;;;2.53;96.62;97325.88;5038401;28;20045;-56
2022/12/07 09:38:49;;;;;;;5.80;2.83;;;;;;;2.64;96.30;97329.78;5044784;28;20041;-58
2022/12/07 09:41:16;;;;;;;6.22;2.50;;;;;;;2.76;97.49;97323.88;5043867;28;20195;-55
2022/12/07 09:43:42;;;;;;;4.18;1.90;;;;;;;2.79;96.26;97323.44;5044692;28;20110;-56
2022/12/07 09:46:16;;;;;;;5.80;2.58;;;;;;;2.82;96.23;97323.88;5044668;28;20056;-56
2022/12/07 09:48:43;;;;;;;5.88;2.70;;;;;;;2.88;95.40;97322.25;5032289;28;20053;-55
2022/12/07 09:51:28;;;;;;;5.25;2.58;;;;;;;2.79;95.34;97326.13;5041255;28;20045;-56
2022/12/07 09:53:57;;;;;;;4.00;2.15;;;;;;;2.76;94.82;97308.63;5039681;28;20045;-53
2022/12/07 09:56:25;;;;;;;3.85;2.08;;;;;;;2.84;93.55;97311.09;5041493;28;20049;-56
2022/12/07 09:59:00;;;;;;;4.18;2.08;;;;;;;2.78;94.79;97306.59;5034530;28;20041;-55
2022/12/07 10:01:30;;;;;;;4.47;2.17;;;;;;;2.81;94.03;97308.88;5039787;28;20048;-52
2022/12/07 10:04:17;;;;;;;4.55;2.20;;;;;;;2.81;94.40;97306.19;5038143;28;20068;-57
2022/12/07 10:06:45;;;;;;;4.75;2.40;;;;;;;2.83;95.10;97303.28;5053721;28;20559;-54
2022/12/07 10:09:13;;;;;;;3.53;1.63;;;;;;;2.72;95.20;97300.19;5045822;28;20122;-55
2022/12/07 10:11:59;;;;;;;5.07;2.05;;;;;;;2.60;96.24;97299.97;5047972;28;20062;-55
2022/12/07 10:14:29;;;;;;;5.93;2.17;;;;;;;2.69;96.05;97292.56;5036871;28;20548;-57
2022/12/07 10:17:30;;;;;;;4.25;1.80;;;;;;;2.56;97.07;97293.38;5032800;28;20412;-54
2022/12/07 10:20:18;;;;;;;4.75;2.00;;;;;;;2.57;98.48;97283.50;5037490;28;20059;-57
2022/12/07 10:22:53;;;;;;;4.03;2.10;;;;;;;2.70;97.45;97285.38;5043832;28;20102;-56
2022/12/07 10:25:21;;;;;;;4.45;2.00;;;;;;;2.75;97.49;97287.44;5031621;28;20566;-58
2022/12/07 10:28:33;;;;;;;4.68;2.45;;;;;;;2.90;96.68;97288.09;5044220;28;20045;-56
2022/12/07 10:31:22;;;;;;;20.98;12.82;;;;;;;2.93;99.51;97293.03;5030553;28;20065;-56
2022/12/07 10:33:51;;;;;;;4.78;2.60;;;;;;;2.83;100.00;97292.59;5046323;28;20318;-56
2022/12/07 10:36:20;;;;;;;5.25;2.30;;;;;;;2.71;100.00;97295.88;5030066;28;20041;-58
2022/12/07 10:39:08;;;;;;;4.10;1.98;;;;;;;2.63;100.00;97290.72;5044106;28;20041;-58
2022/12/07 10:41:34;;;;;;;4.63;2.38;;;;;;;2.65;100.00;97286.00;5030681;28;20411;-57
2022/12/07 10:44:01;;;;;;;8.45;2.75;;;;;;;2.61;100.00;97290.09;5032482;28;20045;-57
2022/12/07 10:46:47;;;;;;;4.72;2.35;;;;;;;2.65;100.00;97283.31;5033708;28;20045;-56
2022/12/07 10:49:26;;;;;;;4.88;2.47;;;;;;;2.46;100.00;97274.22;5037674;28;20041;-57
2022/12/07 10:51:58;;;;;;;5.22;2.83;;;;;;;2.62;100.00;97266.88;5033035;28;20411;-56
2022/12/07 10:54:45;;;;;;;6.20;2.20;;;;;;;2.61;100.00;97271.38;5042221;28;20048;-56
2022/12/07 10:57:43;;;;;;;4.60;2.20;;;;;;;2.62;100.00;97270.38;5044528;28;20041;-57
2022/12/07 11:00:25;;;;;;;4.95;2.65;;;;;;;2.63;100.00;97260.47;5036581;28;20072;-57
2022/12/07 11:02:57;;;;;;;5.35;2.92;;;;;;;2.71;100.00;97266.47;5008108;28;20060;-57
2022/12/07 11:05:42;;;;;;;6.97;3.10;;;;;;;2.82;100.00;97265.03;5031568;28;20041;-56
2022/12/07 11:08:34;;;;;;;7.32;4.15;;;;;;;2.83;100.00;97265.84;5036894;28;20051;-57
2022/12/07 11:11:30;;;;;;;7.72;3.83;;;;;;;2.77;100.00;97264.00;5045928;28;20073;-58
2022/12/07 11:14:09;;;;;;;7.82;3.78;;;;;;;2.71;100.00;97258.44;5040748;28;20067;-58
2022/12/07 11:16:41;;;;;;;12.48;4.60;;;;;;;2.68;100.00;97260.69;5040221;28;20592;-56
2022/12/07 11:19:32;;;;;;;7.93;3.88;;;;;;;2.70;100.00;97256.78;5034487;28;20067;-58
2022/12/07 11:22:05;;;;;;;7.43;3.85;;;;;;;2.85;100.00;97251.25;5030294;28;20045;-58
2022/12/07 11:24:49;;;;;;;10.73;4.38;;;;;;;2.76;100.00;97254.34;5042686;28;20045;-58
2022/12/07 11:27:37;;;;;;;8.07;4.28;;;;;;;2.75;100.00;97256.19;5043147;28;20049;-57
2022/12/07 11:30:16;;;;;;;7.63;4.13;;;;;;;2.70;100.00;97248.75;5045471;28;20041;-58
2022/12/07 11:33:06;;;;;;;6.68;4.10;;;;;;;2.77;99.81;97247.97;5038261;28;20049;-57
2022/12/07 11:36:03;;;;;;;8.27;4.20;;;;;;;2.76;100.00;97249.81;5046205;28;20049;-57
2022/12/07 11:38:47;;;;;;;9.32;4.22;;;;;;;2.74;98.48;97249.19;5045936;28;20622;-55
2022/12/07 11:41:22;;;;;;;7.57;4.22;;;;;;;2.70;99.90;97242.63;5041834;28;20071;-57
2022/12/07 11:43:59;;;;;;;8.38;4.03;;;;;;;2.77;98.99;97248.78;5046057;28;20496;-58
2022/12/07 11:46:50;;;;;;;8.88;4.97;;;;;;;2.62;98.08;97238.28;5033958;28;20127;-57
2022/12/07 11:49:47;;;;;;;7.40;4.07;;;;;;;2.49;99.36;97246.28;5045345;28;20053;-56
2022/12/07 11:52:22;;;;;;;7.80;4.38;;;;;;;2.57;99.35;97230.03;5051877;28;20061;-57
2022/12/07 11:54:53;;;;;;;8.27;4.32;;;;;;;2.56;98.59;97234.59;5041829;28;20118;-57
2022/12/07 11:57:30;;;;;;;10.85;4.10;;;;;;;2.69;98.12;97230.28;5040001;28;20053;-56
2022/12/07 12:00:02;;;;;;;7.78;4.25;;;;;;;2.53;99.15;97226.97;5042805;28;20413;-58
2022/12/07 12:02:42;;;;;;;6.80;3.83;;;;;;;2.57;99.06;97232.72;5031197;28;20049;-56